sensor_id;sensor_type;location;lat;lon;timestamp;temperature;humidity
76857;DHT22;66179;44.686;37.628;2023-03-24T00:01:44;11.27;93.27
76857;DHT22;66179;44.686;37.628;2023-03-24T00:04:11;11.30;92.85
76857;DHT22;66179;44.686;37.628;2023-03-24T00:06:37;11.31;92.90
76857;DHT22;66179;44.686;37.628;2023-03-24T00:09:04;11.29;93.45
76857;DHT22;66179;44.686;37.628;2023-03-24T00:11:31;11.33;92.52
76857;DHT22;66179;44.686;37.628;2023-03-24T00:14:02;11.34;92.34
76857;DHT22;66179;44.686;37.628;2023-03-24T00:16:28;11.31;92.88
76857;DHT22;66179;44.686;37.628;2023-03-24T00:18:55;11.28;93.32
76857;DHT22;66179;44.686;37.628;2023-03-24T00:21:23;11.33;92.52
76857;DHT22;66179;44.686;37.628;2023-03-24T00:23:51;11.36;91.70
76857;DHT22;66179;44.686;37.628;2023-03-24T00:26:20;11.38;91.40
76857;DHT22;66179;44.686;37.628;2023-03-24T00:28:47;11.37;91.31
76857;DHT22;66179;44.686;37.628;2023-03-24T00:31:15;11.39;91.43
76857;DHT22;66179;44.686;37.628;2023-03-24T00:33:44;11.40;91.63
76857;DHT22;66179;44.686;37.628;2023-03-24T00:36:17;11.40;92.13
76857;DHT22;66179;44.686;37.628;2023-03-24T00:38:46;11.39;92.49
76857;DHT22;66179;44.686;37.628;2023-03-24T00:41:14;11.30;93.14
76857;DHT22;66179;44.686;37.628;2023-03-24T00:43:47;11.28;93.43
76857;DHT22;66179;44.686;37.628;2023-03-24T00:46:15;11.23;93.43
76857;DHT22;66179;44.686;37.628;2023-03-24T00:48:57;11.24;93.21
76857;DHT22;66179;44.686;37.628;2023-03-24T00:51:29;11.23;93.30
76857;DHT22;66179;44.686;37.628;2023-03-24T00:53:56;11.23;93.56
76857;DHT22;66179;44.686;37.628;2023-03-24T00:56:28;11.23;93.43
76857;DHT22;66179;44.686;37.628;2023-03-24T00:58:56;11.24;93.11
76857;DHT22;66179;44.686;37.628;2023-03-24T01:01:25;11.17;92.97
76857;DHT22;66179;44.686;37.628;2023-03-24T01:03:52;11.12;93.00
76857;DHT22;66179;44.686;37.628;2023-03-24T01:06:19;11.14;93.04
76857;DHT22;66179;44.686;37.628;2023-03-24T01:08:49;11.12;92.52
76857;DHT22;66179;44.686;37.628;2023-03-24T01:11:23;11.07;92.18
76857;DHT22;66179;44.686;37.628;2023-03-24T01:13:52;11.04;92.17
76857;DHT22;66179;44.686;37.628;2023-03-24T01:16:19;11.04;92.24
76857;DHT22;66179;44.686;37.628;2023-03-24T01:18:50;11.04;92.71
76857;DHT22;66179;44.686;37.628;2023-03-24T01:21:17;11.02;92.50
76857;DHT22;66179;44.686;37.628;2023-03-24T01:23:44;10.98;92.61
76857;DHT22;66179;44.686;37.628;2023-03-24T01:26:10;10.99;92.45
76857;DHT22;66179;44.686;37.628;2023-03-24T01:28:37;11.00;92.31
76857;DHT22;66179;44.686;37.628;2023-03-24T01:31:07;10.97;92.34
76857;DHT22;66179;44.686;37.628;2023-03-24T01:33:36;10.99;92.09
76857;DHT22;66179;44.686;37.628;2023-03-24T01:36:04;11.00;91.80
76857;DHT22;66179;44.686;37.628;2023-03-24T01:38:31;11.01;91.79
76857;DHT22;66179;44.686;37.628;2023-03-24T01:40:58;11.02;91.68
76857;DHT22;66179;44.686;37.628;2023-03-24T01:43:27;11.01;91.59
76857;DHT22;66179;44.686;37.628;2023-03-24T01:46:06;10.97;91.80
76857;DHT22;66179;44.686;37.628;2023-03-24T01:48:53;10.97;91.39
76857;DHT22;66179;44.686;37.628;2023-03-24T01:51:41;11.02;91.48
76857;DHT22;66179;44.686;37.628;2023-03-24T01:54:22;10.98;91.63
76857;DHT22;66179;44.686;37.628;2023-03-24T01:56:58;11.03;91.47
76857;DHT22;66179;44.686;37.628;2023-03-24T01:59:28;11.07;91.26
76857;DHT22;66179;44.686;37.628;2023-03-24T02:02:09;11.03;90.95
76857;DHT22;66179;44.686;37.628;2023-03-24T02:04:58;11.00;91.21
76857;DHT22;66179;44.686;37.628;2023-03-24T02:10:21;10.96;91.40
76857;DHT22;66179;44.686;37.628;2023-03-24T02:12:48;10.94;91.75
76857;DHT22;66179;44.686;37.628;2023-03-24T02:15:18;10.96;91.37
76857;DHT22;66179;44.686;37.628;2023-03-24T02:18:24;10.97;90.85
76857;DHT22;66179;44.686;37.628;2023-03-24T02:21:21;10.94;90.80
76857;DHT22;66179;44.686;37.628;2023-03-24T02:43:24;10.99;90.53
76857;DHT22;66179;44.686;37.628;2023-03-24T02:46:08;10.95;90.83
76857;DHT22;66179;44.686;37.628;2023-03-24T02:51:54;10.98;90.37
76857;DHT22;66179;44.686;37.628;2023-03-24T02:57:44;10.90;90.92
76857;DHT22;66179;44.686;37.628;2023-03-24T03:00:52;10.86;91.70
76857;DHT22;66179;44.686;37.628;2023-03-24T03:03:52;10.81;92.82
76857;DHT22;66179;44.686;37.628;2023-03-24T03:06:28;10.82;92.34
76857;DHT22;66179;44.686;37.628;2023-03-24T03:08:57;10.79;92.21
76857;DHT22;66179;44.686;37.628;2023-03-24T03:11:24;10.75;91.72
76857;DHT22;66179;44.686;37.628;2023-03-24T03:14:03;10.77;92.14
76857;DHT22;66179;44.686;37.628;2023-03-24T03:16:38;10.81;91.36
76857;DHT22;66179;44.686;37.628;2023-03-24T03:19:52;10.81;91.83
76857;DHT22;66179;44.686;37.628;2023-03-24T03:22:15;10.81;92.22
76857;DHT22;66179;44.686;37.628;2023-03-24T03:24:46;10.82;91.93
76857;DHT22;66179;44.686;37.628;2023-03-24T03:29:50;10.88;91.41
76857;DHT22;66179;44.686;37.628;2023-03-24T03:32:26;10.87;91.51
76857;DHT22;66179;44.686;37.628;2023-03-24T03:37:33;10.88;91.52
76857;DHT22;66179;44.686;37.628;2023-03-24T03:40:07;10.89;91.16
76857;DHT22;66179;44.686;37.628;2023-03-24T03:42:37;10.93;90.77
76857;DHT22;66179;44.686;37.628;2023-03-24T03:45:06;10.96;90.37
76857;DHT22;66179;44.686;37.628;2023-03-24T03:47:34;10.96;90.24
76857;DHT22;66179;44.686;37.628;2023-03-24T03:50:03;10.96;91.27
76857;DHT22;66179;44.686;37.628;2023-03-24T03:52:31;10.99;90.76
76857;DHT22;66179;44.686;37.628;2023-03-24T03:54:58;10.98;90.60
76857;DHT22;66179;44.686;37.628;2023-03-24T03:57:25;10.99;90.93
76857;DHT22;66179;44.686;37.628;2023-03-24T04:00:15;10.98;90.56
76857;DHT22;66179;44.686;37.628;2023-03-24T04:05:35;11.01;90.88
76857;DHT22;66179;44.686;37.628;2023-03-24T04:08:42;10.97;90.66
76857;DHT22;66179;44.686;37.628;2023-03-24T04:11:45;10.97;90.78
76857;DHT22;66179;44.686;37.628;2023-03-24T04:23:56;11.07;91.18
76857;DHT22;66179;44.686;37.628;2023-03-24T04:26:34;11.10;91.11
76857;DHT22;66179;44.686;37.628;2023-03-24T04:29:28;11.10;91.90
76857;DHT22;66179;44.686;37.628;2023-03-24T04:34:33;11.17;91.37
76857;DHT22;66179;44.686;37.628;2023-03-24T04:37:21;11.20;91.09
76857;DHT22;66179;44.686;37.628;2023-03-24T04:40:02;11.24;91.26
76857;DHT22;66179;44.686;37.628;2023-03-24T04:42:35;11.24;91.16
76857;DHT22;66179;44.686;37.628;2023-03-24T04:45:05;11.24;90.91
76857;DHT22;66179;44.686;37.628;2023-03-24T04:48:09;11.31;90.65
76857;DHT22;66179;44.686;37.628;2023-03-24T04:51:01;11.28;89.96
76857;DHT22;66179;44.686;37.628;2023-03-24T04:53:43;11.28;89.89
76857;DHT22;66179;44.686;37.628;2023-03-24T04:56:31;11.29;90.09
76857;DHT22;66179;44.686;37.628;2023-03-24T04:59:05;11.24;89.99
76857;DHT22;66179;44.686;37.628;2023-03-24T05:01:33;11.25;89.45
76857;DHT22;66179;44.686;37.628;2023-03-24T05:04:23;11.25;89.71
76857;DHT22;66179;44.686;37.628;2023-03-24T05:06:50;11.16;89.63
76857;DHT22;66179;44.686;37.628;2023-03-24T05:09:22;11.18;89.73
76857;DHT22;66179;44.686;37.628;2023-03-24T05:11:49;11.22;90.37
76857;DHT22;66179;44.686;37.628;2023-03-24T05:14:18;11.27;89.71
76857;DHT22;66179;44.686;37.628;2023-03-24T05:16:44;11.28;88.94
76857;DHT22;66179;44.686;37.628;2023-03-24T05:19:11;11.30;89.12
76857;DHT22;66179;44.686;37.628;2023-03-24T05:21:39;11.37;89.21
76857;DHT22;66179;44.686;37.628;2023-03-24T05:24:06;11.36;88.90
76857;DHT22;66179;44.686;37.628;2023-03-24T05:26:34;11.33;89.24
76857;DHT22;66179;44.686;37.628;2023-03-24T05:29:12;11.30;88.70
76857;DHT22;66179;44.686;37.628;2023-03-24T05:31:39;11.32;88.85
76857;DHT22;66179;44.686;37.628;2023-03-24T05:34:12;11.29;89.07
76857;DHT22;66179;44.686;37.628;2023-03-24T05:36:52;11.26;88.81
76857;DHT22;66179;44.686;37.628;2023-03-24T05:39:20;11.32;88.86
76857;DHT22;66179;44.686;37.628;2023-03-24T05:41:57;11.31;88.32
76857;DHT22;66179;44.686;37.628;2023-03-24T05:44:23;11.29;88.79
76857;DHT22;66179;44.686;37.628;2023-03-24T05:47:02;11.29;89.15
76857;DHT22;66179;44.686;37.628;2023-03-24T05:49:29;11.29;89.04
76857;DHT22;66179;44.686;37.628;2023-03-24T05:51:56;11.30;89.50
76857;DHT22;66179;44.686;37.628;2023-03-24T05:54:22;11.30;89.83
76857;DHT22;66179;44.686;37.628;2023-03-24T05:56:54;11.33;90.47
76857;DHT22;66179;44.686;37.628;2023-03-24T05:59:31;11.39;90.41
76857;DHT22;66179;44.686;37.628;2023-03-24T06:02:09;11.51;89.83
76857;DHT22;66179;44.686;37.628;2023-03-24T06:04:53;11.53;89.95
76857;DHT22;66179;44.686;37.628;2023-03-24T06:07:23;11.55;89.57
76857;DHT22;66179;44.686;37.628;2023-03-24T06:09:52;11.58;89.72
76857;DHT22;66179;44.686;37.628;2023-03-24T06:12:23;11.55;89.76
76857;DHT22;66179;44.686;37.628;2023-03-24T06:14:55;11.53;89.95
76857;DHT22;66179;44.686;37.628;2023-03-24T06:17:23;11.48;89.88
76857;DHT22;66179;44.686;37.628;2023-03-24T06:19:52;11.45;90.14
76857;DHT22;66179;44.686;37.628;2023-03-24T06:22:22;11.47;90.53
76857;DHT22;66179;44.686;37.628;2023-03-24T06:24:49;11.42;90.65
76857;DHT22;66179;44.686;37.628;2023-03-24T06:27:16;11.40;90.73
76857;DHT22;66179;44.686;37.628;2023-03-24T06:29:44;11.43;90.64
76857;DHT22;66179;44.686;37.628;2023-03-24T06:32:12;11.43;89.60
76857;DHT22;66179;44.686;37.628;2023-03-24T06:34:41;11.41;89.61
76857;DHT22;66179;44.686;37.628;2023-03-24T06:37:18;11.44;88.76
76857;DHT22;66179;44.686;37.628;2023-03-24T06:39:46;11.40;89.12
76857;DHT22;66179;44.686;37.628;2023-03-24T06:42:14;11.39;87.78
76857;DHT22;66179;44.686;37.628;2023-03-24T06:44:41;11.38;88.25
76857;DHT22;66179;44.686;37.628;2023-03-24T06:47:08;11.40;88.19
76857;DHT22;66179;44.686;37.628;2023-03-24T06:49:35;11.43;88.04
76857;DHT22;66179;44.686;37.628;2023-03-24T06:52:03;11.42;88.75
76857;DHT22;66179;44.686;37.628;2023-03-24T06:54:33;11.39;88.67
76857;DHT22;66179;44.686;37.628;2023-03-24T06:57:01;11.42;88.56
76857;DHT22;66179;44.686;37.628;2023-03-24T06:59:48;11.41;89.26
76857;DHT22;66179;44.686;37.628;2023-03-24T07:02:15;11.46;88.39
76857;DHT22;66179;44.686;37.628;2023-03-24T07:04:44;11.47;87.81
76857;DHT22;66179;44.686;37.628;2023-03-24T07:07:34;11.49;88.06
76857;DHT22;66179;44.686;37.628;2023-03-24T07:10:31;11.46;88.67
76857;DHT22;66179;44.686;37.628;2023-03-24T07:12:59;11.44;88.89
76857;DHT22;66179;44.686;37.628;2023-03-24T07:15:26;11.48;88.92
76857;DHT22;66179;44.686;37.628;2023-03-24T07:17:54;11.53;89.09
76857;DHT22;66179;44.686;37.628;2023-03-24T07:20:41;11.53;88.65
76857;DHT22;66179;44.686;37.628;2023-03-24T07:23:15;11.54;88.74
76857;DHT22;66179;44.686;37.628;2023-03-24T07:25:56;11.55;89.12
76857;DHT22;66179;44.686;37.628;2023-03-24T07:28:41;11.53;89.14
76857;DHT22;66179;44.686;37.628;2023-03-24T07:31:07;11.42;89.57
76857;DHT22;66179;44.686;37.628;2023-03-24T07:33:39;11.42;89.93
76857;DHT22;66179;44.686;37.628;2023-03-24T07:36:06;11.42;89.63
76857;DHT22;66179;44.686;37.628;2023-03-24T07:38:38;11.43;89.75
76857;DHT22;66179;44.686;37.628;2023-03-24T07:41:09;11.43;89.67
76857;DHT22;66179;44.686;37.628;2023-03-24T07:43:39;11.31;90.23
76857;DHT22;66179;44.686;37.628;2023-03-24T07:46:19;11.31;90.74
76857;DHT22;66179;44.686;37.628;2023-03-24T07:48:46;11.32;90.61
76857;DHT22;66179;44.686;37.628;2023-03-24T07:51:14;11.34;90.77
76857;DHT22;66179;44.686;37.628;2023-03-24T07:54:01;11.38;90.59
76857;DHT22;66179;44.686;37.628;2023-03-24T07:56:47;11.43;90.52
76857;DHT22;66179;44.686;37.628;2023-03-24T07:59:14;11.44;90.18
76857;DHT22;66179;44.686;37.628;2023-03-24T08:01:49;11.48;89.76
76857;DHT22;66179;44.686;37.628;2023-03-24T08:04:19;11.43;90.11
76857;DHT22;66179;44.686;37.628;2023-03-24T08:07:04;11.39;90.45
76857;DHT22;66179;44.686;37.628;2023-03-24T08:09:30;11.43;89.66
76857;DHT22;66179;44.686;37.628;2023-03-24T08:11:57;11.41;90.31
76857;DHT22;66179;44.686;37.628;2023-03-24T08:14:24;11.41;90.00
76857;DHT22;66179;44.686;37.628;2023-03-24T08:16:50;11.44;90.24
76857;DHT22;66179;44.686;37.628;2023-03-24T08:19:17;11.44;89.73
76857;DHT22;66179;44.686;37.628;2023-03-24T08:21:43;11.43;89.95
76857;DHT22;66179;44.686;37.628;2023-03-24T08:24:09;11.42;90.02
76857;DHT22;66179;44.686;37.628;2023-03-24T08:26:36;11.38;90.27
76857;DHT22;66179;44.686;37.628;2023-03-24T08:29:02;11.39;90.48
76857;DHT22;66179;44.686;37.628;2023-03-24T08:31:35;11.44;90.44
76857;DHT22;66179;44.686;37.628;2023-03-24T08:34:03;11.47;90.13
76857;DHT22;66179;44.686;37.628;2023-03-24T08:36:29;11.49;89.56
76857;DHT22;66179;44.686;37.628;2023-03-24T08:38:57;11.48;89.33
76857;DHT22;66179;44.686;37.628;2023-03-24T08:41:24;11.52;89.30
76857;DHT22;66179;44.686;37.628;2023-03-24T08:43:55;11.52;88.61
76857;DHT22;66179;44.686;37.628;2023-03-24T08:46:22;11.55;88.89
76857;DHT22;66179;44.686;37.628;2023-03-24T08:48:48;11.58;89.23
76857;DHT22;66179;44.686;37.628;2023-03-24T08:51:16;11.73;88.53
76857;DHT22;66179;44.686;37.628;2023-03-24T08:53:43;11.79;88.10
76857;DHT22;66179;44.686;37.628;2023-03-24T08:56:09;11.86;87.46
76857;DHT22;66179;44.686;37.628;2023-03-24T08:58:36;11.90;86.53
76857;DHT22;66179;44.686;37.628;2023-03-24T09:01:03;11.97;86.46
76857;DHT22;66179;44.686;37.628;2023-03-24T09:03:29;11.94;86.06
76857;DHT22;66179;44.686;37.628;2023-03-24T09:05:57;11.85;86.17
76857;DHT22;66179;44.686;37.628;2023-03-24T09:08:23;11.84;86.19
76857;DHT22;66179;44.686;37.628;2023-03-24T09:10:50;11.85;85.87
76857;DHT22;66179;44.686;37.628;2023-03-24T09:13:17;11.82;85.57
76857;DHT22;66179;44.686;37.628;2023-03-24T09:15:49;11.74;85.87
76857;DHT22;66179;44.686;37.628;2023-03-24T09:18:17;11.75;86.12
76857;DHT22;66179;44.686;37.628;2023-03-24T09:20:44;11.82;86.12
76857;DHT22;66179;44.686;37.628;2023-03-24T09:23:11;11.89;86.30
76857;DHT22;66179;44.686;37.628;2023-03-24T09:25:37;11.90;85.99
76857;DHT22;66179;44.686;37.628;2023-03-24T09:28:04;11.90;85.51
76857;DHT22;66179;44.686;37.628;2023-03-24T09:30:32;12.01;86.25
76857;DHT22;66179;44.686;37.628;2023-03-24T09:32:58;12.07;85.49
76857;DHT22;66179;44.686;37.628;2023-03-24T09:35:26;12.02;85.67
76857;DHT22;66179;44.686;37.628;2023-03-24T09:37:53;12.10;85.93
76857;DHT22;66179;44.686;37.628;2023-03-24T09:40:34;11.94;86.25
76857;DHT22;66179;44.686;37.628;2023-03-24T09:43:12;11.94;85.45
76857;DHT22;66179;44.686;37.628;2023-03-24T09:45:48;11.96;85.90
76857;DHT22;66179;44.686;37.628;2023-03-24T09:56:18;11.90;86.80
76857;DHT22;66179;44.686;37.628;2023-03-24T09:58:59;11.88;86.67
76857;DHT22;66179;44.686;37.628;2023-03-24T10:01:27;11.81;86.68
76857;DHT22;66179;44.686;37.628;2023-03-24T10:03:58;11.77;87.12
76857;DHT22;66179;44.686;37.628;2023-03-24T10:06:37;11.69;87.46
76857;DHT22;66179;44.686;37.628;2023-03-24T10:09:29;11.63;87.73
76857;DHT22;66179;44.686;37.628;2023-03-24T10:12:00;11.71;88.91
76857;DHT22;66179;44.686;37.628;2023-03-24T10:20:02;11.84;87.86
76857;DHT22;66179;44.686;37.628;2023-03-24T10:22:39;11.92;88.44
76857;DHT22;66179;44.686;37.628;2023-03-24T10:28:15;11.96;86.47
76857;DHT22;66179;44.686;37.628;2023-03-24T10:30:44;11.92;84.68
76857;DHT22;66179;44.686;37.628;2023-03-24T10:33:13;11.99;85.24
76857;DHT22;66179;44.686;37.628;2023-03-24T10:36:31;11.98;84.62
76857;DHT22;66179;44.686;37.628;2023-03-24T10:38:51;11.92;84.99
76857;DHT22;66179;44.686;37.628;2023-03-24T10:41:20;11.97;84.29
76857;DHT22;66179;44.686;37.628;2023-03-24T10:43:49;11.90;83.39
76857;DHT22;66179;44.686;37.628;2023-03-24T10:46:22;11.89;84.41
76857;DHT22;66179;44.686;37.628;2023-03-24T10:48:51;11.90;84.70
76857;DHT22;66179;44.686;37.628;2023-03-24T10:51:29;11.97;85.03
76857;DHT22;66179;44.686;37.628;2023-03-24T10:54:19;11.96;84.58
76857;DHT22;66179;44.686;37.628;2023-03-24T10:57:13;11.96;85.25
76857;DHT22;66179;44.686;37.628;2023-03-24T11:00:00;11.93;84.24
76857;DHT22;66179;44.686;37.628;2023-03-24T11:02:31;11.93;84.98
76857;DHT22;66179;44.686;37.628;2023-03-24T11:05:01;11.99;84.81
76857;DHT22;66179;44.686;37.628;2023-03-24T11:07:32;12.02;83.82
76857;DHT22;66179;44.686;37.628;2023-03-24T11:12:38;12.04;83.72
76857;DHT22;66179;44.686;37.628;2023-03-24T11:15:18;12.07;84.27
76857;DHT22;66179;44.686;37.628;2023-03-24T11:17:47;12.03;84.28
76857;DHT22;66179;44.686;37.628;2023-03-24T11:20:16;11.98;84.61
76857;DHT22;66179;44.686;37.628;2023-03-24T11:25:40;11.96;85.06
76857;DHT22;66179;44.686;37.628;2023-03-24T11:28:14;12.00;85.41
76857;DHT22;66179;44.686;37.628;2023-03-24T11:30:48;12.00;85.26
76857;DHT22;66179;44.686;37.628;2023-03-24T11:33:25;12.02;84.90
76857;DHT22;66179;44.686;37.628;2023-03-24T11:35:52;11.96;85.23
76857;DHT22;66179;44.686;37.628;2023-03-24T11:38:28;11.93;84.50
76857;DHT22;66179;44.686;37.628;2023-03-24T11:41:00;11.91;84.46
76857;DHT22;66179;44.686;37.628;2023-03-24T11:43:30;11.76;85.71
76857;DHT22;66179;44.686;37.628;2023-03-24T11:46:16;11.77;85.73
76857;DHT22;66179;44.686;37.628;2023-03-24T11:51:22;11.83;85.14
76857;DHT22;66179;44.686;37.628;2023-03-24T11:53:52;11.79;85.69
76857;DHT22;66179;44.686;37.628;2023-03-24T11:56:24;11.63;87.28
76857;DHT22;66179;44.686;37.628;2023-03-24T12:07:35;11.58;87.58
76857;DHT22;66179;44.686;37.628;2023-03-24T12:28:57;11.60;87.38
76857;DHT22;66179;44.686;37.628;2023-03-24T12:34:39;11.48;88.58
76857;DHT22;66179;44.686;37.628;2023-03-24T12:42:42;11.39;89.78
76857;DHT22;66179;44.686;37.628;2023-03-24T12:56:43;11.55;89.20
76857;DHT22;66179;44.686;37.628;2023-03-24T12:59:19;11.54;89.44
76857;DHT22;66179;44.686;37.628;2023-03-24T13:02:21;11.52;89.96
76857;DHT22;66179;44.686;37.628;2023-03-24T13:04:47;11.48;90.05
76857;DHT22;66179;44.686;37.628;2023-03-24T13:07:20;11.40;91.19
76857;DHT22;66179;44.686;37.628;2023-03-24T13:31:38;11.13;93.69
76857;DHT22;66179;44.686;37.628;2023-03-24T13:39:35;11.09;93.08
76857;DHT22;66179;44.686;37.628;2023-03-24T13:42:02;11.08;93.62
76857;DHT22;66179;44.686;37.628;2023-03-24T13:44:39;11.08;93.60
76857;DHT22;66179;44.686;37.628;2023-03-24T13:47:14;11.05;93.99
76857;DHT22;66179;44.686;37.628;2023-03-24T13:49:51;11.01;93.84
76857;DHT22;66179;44.686;37.628;2023-03-24T13:52:36;11.01;93.69
76857;DHT22;66179;44.686;37.628;2023-03-24T13:55:24;11.04;93.70
76857;DHT22;66179;44.686;37.628;2023-03-24T13:58:03;11.05;94.20
76857;DHT22;66179;44.686;37.628;2023-03-24T14:06:55;10.93;95.21
76857;DHT22;66179;44.686;37.628;2023-03-24T14:09:27;10.94;95.36
76857;DHT22;66179;44.686;37.628;2023-03-24T14:12:06;10.92;95.65
76857;DHT22;66179;44.686;37.628;2023-03-24T14:14:34;10.88;96.04
76857;DHT22;66179;44.686;37.628;2023-03-24T14:19:40;10.92;95.97
76857;DHT22;66179;44.686;37.628;2023-03-24T14:24:43;10.79;96.33
76857;DHT22;66179;44.686;37.628;2023-03-24T14:27:37;10.77;96.48
76857;DHT22;66179;44.686;37.628;2023-03-24T14:32:43;10.78;96.69
76857;DHT22;66179;44.686;37.628;2023-03-24T14:38:23;10.82;96.34
76857;DHT22;66179;44.686;37.628;2023-03-24T14:40:56;10.82;96.53
76857;DHT22;66179;44.686;37.628;2023-03-24T14:54:44;10.86;96.37
76857;DHT22;66179;44.686;37.628;2023-03-24T14:57:29;10.88;96.17
76857;DHT22;66179;44.686;37.628;2023-03-24T15:00:25;10.85;96.47
76857;DHT22;66179;44.686;37.628;2023-03-24T15:10:38;10.84;96.16
76857;DHT22;66179;44.686;37.628;2023-03-24T15:13:17;10.75;96.70
76857;DHT22;66179;44.686;37.628;2023-03-24T15:15:48;10.70;96.84
76857;DHT22;66179;44.686;37.628;2023-03-24T15:18:18;10.74;96.88
76857;DHT22;66179;44.686;37.628;2023-03-24T15:20:48;10.72;97.00
76857;DHT22;66179;44.686;37.628;2023-03-24T15:23:21;10.72;96.80
76857;DHT22;66179;44.686;37.628;2023-03-24T15:25:48;10.72;96.05
76857;DHT22;66179;44.686;37.628;2023-03-24T15:28:21;10.73;96.44
76857;DHT22;66179;44.686;37.628;2023-03-24T15:30:49;10.81;96.14
76857;DHT22;66179;44.686;37.628;2023-03-24T15:33:16;10.85;95.49
76857;DHT22;66179;44.686;37.628;2023-03-24T15:35:52;10.82;95.54
76857;DHT22;66179;44.686;37.628;2023-03-24T15:38:26;10.79;95.39
76857;DHT22;66179;44.686;37.628;2023-03-24T15:41:03;10.81;95.36
76857;DHT22;66179;44.686;37.628;2023-03-24T15:43:31;10.82;95.26
76857;DHT22;66179;44.686;37.628;2023-03-24T15:45:58;10.79;94.85
76857;DHT22;66179;44.686;37.628;2023-03-24T15:48:33;10.75;94.91
76857;DHT22;66179;44.686;37.628;2023-03-24T15:51:08;10.77;95.02
76857;DHT22;66179;44.686;37.628;2023-03-24T15:53:53;10.78;95.30
76857;DHT22;66179;44.686;37.628;2023-03-24T15:56:28;10.84;95.09
76857;DHT22;66179;44.686;37.628;2023-03-24T15:59:11;10.93;94.88
76857;DHT22;66179;44.686;37.628;2023-03-24T16:01:39;10.95;94.33
76857;DHT22;66179;44.686;37.628;2023-03-24T16:04:13;10.96;94.06
76857;DHT22;66179;44.686;37.628;2023-03-24T16:06:44;10.99;94.03
76857;DHT22;66179;44.686;37.628;2023-03-24T16:09:15;10.98;93.60
76857;DHT22;66179;44.686;37.628;2023-03-24T16:11:47;10.98;93.82
76857;DHT22;66179;44.686;37.628;2023-03-24T16:16:52;10.92;93.97
76857;DHT22;66179;44.686;37.628;2023-03-24T16:19:19;10.89;94.13
76857;DHT22;66179;44.686;37.628;2023-03-24T16:21:45;10.89;94.01
76857;DHT22;66179;44.686;37.628;2023-03-24T16:24:11;10.87;94.04
76857;DHT22;66179;44.686;37.628;2023-03-24T16:26:38;10.88;93.72
76857;DHT22;66179;44.686;37.628;2023-03-24T16:29:19;10.87;94.14
76857;DHT22;66179;44.686;37.628;2023-03-24T16:31:48;10.94;93.96
76857;DHT22;66179;44.686;37.628;2023-03-24T16:34:16;10.94;93.73
76857;DHT22;66179;44.686;37.628;2023-03-24T16:36:48;10.94;93.61
76857;DHT22;66179;44.686;37.628;2023-03-24T16:39:17;10.92;93.45
76857;DHT22;66179;44.686;37.628;2023-03-24T16:41:44;10.94;94.87
76857;DHT22;66179;44.686;37.628;2023-03-24T16:44:11;10.86;93.11
76857;DHT22;66179;44.686;37.628;2023-03-24T16:46:39;10.85;93.01
76857;DHT22;66179;44.686;37.628;2023-03-24T16:49:07;10.83;92.81
76857;DHT22;66179;44.686;37.628;2023-03-24T16:51:36;10.82;92.94
76857;DHT22;66179;44.686;37.628;2023-03-24T16:54:03;10.84;92.97
76857;DHT22;66179;44.686;37.628;2023-03-24T16:56:30;10.81;92.80
76857;DHT22;66179;44.686;37.628;2023-03-24T16:58:56;10.83;93.05
76857;DHT22;66179;44.686;37.628;2023-03-24T17:01:34;10.83;93.17
76857;DHT22;66179;44.686;37.628;2023-03-24T17:04:05;10.83;93.08
76857;DHT22;66179;44.686;37.628;2023-03-24T17:06:38;10.82;93.09
76857;DHT22;66179;44.686;37.628;2023-03-24T17:09:07;10.79;93.56
76857;DHT22;66179;44.686;37.628;2023-03-24T17:11:37;10.82;93.62
76857;DHT22;66179;44.686;37.628;2023-03-24T17:14:07;10.82;93.35
76857;DHT22;66179;44.686;37.628;2023-03-24T17:16:40;10.82;93.17
76857;DHT22;66179;44.686;37.628;2023-03-24T17:19:11;10.86;93.41
76857;DHT22;66179;44.686;37.628;2023-03-24T17:21:51;10.84;93.33
76857;DHT22;66179;44.686;37.628;2023-03-24T17:24:20;10.85;93.37
76857;DHT22;66179;44.686;37.628;2023-03-24T17:26:49;10.83;92.47
76857;DHT22;66179;44.686;37.628;2023-03-24T17:29:15;10.81;91.94
76857;DHT22;66179;44.686;37.628;2023-03-24T17:31:42;10.79;91.97
76857;DHT22;66179;44.686;37.628;2023-03-24T17:34:12;10.78;91.99
76857;DHT22;66179;44.686;37.628;2023-03-24T17:36:39;10.81;92.01
76857;DHT22;66179;44.686;37.628;2023-03-24T17:39:26;10.81;92.31
76857;DHT22;66179;44.686;37.628;2023-03-24T17:41:53;10.82;92.28
76857;DHT22;66179;44.686;37.628;2023-03-24T17:44:42;10.82;92.29
76857;DHT22;66179;44.686;37.628;2023-03-24T17:47:09;10.81;92.37
76857;DHT22;66179;44.686;37.628;2023-03-24T17:49:35;10.84;92.24
76857;DHT22;66179;44.686;37.628;2023-03-24T17:52:02;10.90;92.16
76857;DHT22;66179;44.686;37.628;2023-03-24T17:54:29;10.97;91.58
76857;DHT22;66179;44.686;37.628;2023-03-24T17:56:55;10.97;91.36
76857;DHT22;66179;44.686;37.628;2023-03-24T17:59:22;10.95;91.81
76857;DHT22;66179;44.686;37.628;2023-03-24T18:01:49;10.99;91.75
76857;DHT22;66179;44.686;37.628;2023-03-24T18:04:15;11.00;91.66
76857;DHT22;66179;44.686;37.628;2023-03-24T18:06:43;10.98;91.73
76857;DHT22;66179;44.686;37.628;2023-03-24T18:09:11;10.93;91.90
76857;DHT22;66179;44.686;37.628;2023-03-24T18:11:38;10.89;92.07
76857;DHT22;66179;44.686;37.628;2023-03-24T18:14:05;10.89;92.49
76857;DHT22;66179;44.686;37.628;2023-03-24T18:16:34;10.85;92.34
76857;DHT22;66179;44.686;37.628;2023-03-24T18:19:00;10.84;92.51
76857;DHT22;66179;44.686;37.628;2023-03-24T18:21:27;10.85;92.30
76857;DHT22;66179;44.686;37.628;2023-03-24T18:23:54;10.85;92.14
76857;DHT22;66179;44.686;37.628;2023-03-24T18:26:41;10.83;92.21
76857;DHT22;66179;44.686;37.628;2023-03-24T18:29:08;10.86;92.30
76857;DHT22;66179;44.686;37.628;2023-03-24T18:31:55;10.84;91.91
76857;DHT22;66179;44.686;37.628;2023-03-24T18:34:22;10.84;91.91
76857;DHT22;66179;44.686;37.628;2023-03-24T18:36:48;10.80;91.56
76857;DHT22;66179;44.686;37.628;2023-03-24T18:39:15;10.83;91.78
76857;DHT22;66179;44.686;37.628;2023-03-24T18:41:42;10.83;91.55
76857;DHT22;66179;44.686;37.628;2023-03-24T18:44:11;10.80;91.07
76857;DHT22;66179;44.686;37.628;2023-03-24T18:46:38;10.79;91.27
76857;DHT22;66179;44.686;37.628;2023-03-24T18:49:05;10.78;91.87
76857;DHT22;66179;44.686;37.628;2023-03-24T18:51:32;10.78;91.92
76857;DHT22;66179;44.686;37.628;2023-03-24T18:53:59;10.78;92.21
76857;DHT22;66179;44.686;37.628;2023-03-24T18:56:26;10.75;92.37